Time;durP1;ratioP1;P1;durP2;ratioP2;P2;SDS_P1;SDS_P2;PMS_P1;PMS_P2;Temp;Humidity;BMP_temperature;BMP_pressure;BME280_temperature;BME280_humidity;BME280_pressure;Samples;Min_cycle;Max_cycle;Signal;HPM_P1;HPM_P2
2022/06/03 00:00:49;;;;;;;9.77;7.07;;;15.80;55.10;;;;;;5034626;28;20568;-86
2022/06/03 00:03:33;;;;;;;8.50;7.45;;;15.70;55.50;;;;;;5051003;28;20173;-86
2022/06/03 00:06:07;;;;;;;9.40;7.10;;;15.70;55.90;;;;;;5053908;28;20559;-86
2022/06/03 00:09:00;;;;;;;10.20;6.95;;;15.60;56.30;;;;;;5051606;28;20259;-86
2022/06/03 00:11:52;;;;;;;14.32;8.25;;;15.60;56.40;;;;;;5044160;28;20193;-88
2022/06/03 00:14:41;;;;;;;10.60;8.25;;;15.60;56.50;;;;;;5046344;28;20185;-85
2022/06/03 00:17:29;;;;;;;8.20;7.35;;;15.50;57.40;;;;;;5046028;28;20205;-84
2022/06/03 00:20:09;;;;;;;11.23;7.10;;;15.50;57.20;;;;;;5047785;28;20259;-86
2022/06/03 00:22:54;;;;;;;8.15;7.30;;;15.60;56.30;;;;;;5053366;28;20622;-85
2022/06/03 00:25:26;;;;;;;7.60;6.75;;;15.50;56.80;;;;;;5042512;28;20530;-86
2022/06/03 00:27:54;;;;;;;7.43;6.72;;;15.40;57.20;;;;;;5045934;28;20245;-86
2022/06/03 00:30:39;;;;;;;10.63;7.63;;;15.40;57.40;;;;;;5037534;28;20237;-86
2022/06/03 00:33:29;;;;;;;8.75;7.30;;;15.40;56.90;;;;;;5048054;28;20217;-86
2022/06/03 00:36:19;;;;;;;10.38;8.00;;;15.40;57.00;;;;;;5038766;28;20202;-85
2022/06/03 00:38:50;;;;;;;9.43;7.20;;;15.40;57.00;;;;;;5044642;28;20173;-86
2022/06/03 00:41:50;;;;;;;10.18;8.18;;;15.30;57.50;;;;;;5048911;28;20546;-85
2022/06/03 00:44:48;;;;;;;11.35;8.82;;;15.30;58.20;;;;;;5042569;28;20182;-86
2022/06/03 00:47:30;;;;;;;7.75;6.95;;;15.20;58.20;;;;;;5040045;28;20628;-86
2022/06/03 00:50:17;;;;;;;11.18;8.50;;;15.20;58.50;;;;;;5042921;28;20685;-86
2022/06/03 00:52:46;;;;;;;10.85;7.45;;;15.20;58.20;;;;;;5052620;28;20712;-86
2022/06/03 00:55:14;;;;;;;9.55;7.15;;;15.20;57.90;;;;;;5053544;28;20204;-85
2022/06/03 00:58:15;;;;;;;9.45;7.45;;;15.20;57.70;;;;;;5045702;28;20181;-86
2022/06/03 01:00:53;;;;;;;12.38;9.65;;;15.20;57.90;;;;;;5029540;28;20197;-88
2022/06/03 01:03:28;;;;;;;10.05;8.65;;;15.10;58.50;;;;;;5048630;28;20169;-88
2022/06/03 01:06:22;;;;;;;10.63;8.75;;;15.00;59.40;;;;;;5044305;28;20169;-87
2022/06/03 01:09:07;;;;;;;9.13;8.15;;;15.10;59.10;;;;;;5051778;28;20189;-85
2022/06/03 01:11:47;;;;;;;9.32;8.43;;;15.00;58.60;;;;;;5051127;28;20212;-86
2022/06/03 01:14:41;;;;;;;9.02;8.07;;;14.90;59.30;;;;;;5046017;28;20185;-86
2022/06/03 01:17:34;;;;;;;11.35;8.20;;;14.90;59.40;;;;;;5047703;28;20552;-87
2022/06/03 01:20:18;;;;;;;10.27;7.85;;;14.90;58.90;;;;;;5062668;28;20197;-86
2022/06/03 01:23:18;;;;;;;8.68;7.78;;;14.90;59.70;;;;;;5055873;28;20181;-86
2022/06/03 01:25:59;;;;;;;9.63;8.63;;;14.90;59.50;;;;;;5034226;28;20194;-86
2022/06/03 01:28:45;;;;;;;8.20;7.40;;;14.80;60.00;;;;;;5049665;28;20177;-87
2022/06/03 01:31:37;;;;;;;9.27;7.97;;;14.80;60.30;;;;;;5054250;28;20562;-85
2022/06/03 01:34:08;;;;;;;10.60;9.15;;;14.80;60.40;;;;;;5053506;28;20166;-86
2022/06/03 01:36:40;;;;;;;9.38;8.32;;;14.80;60.10;;;;;;5046826;28;20220;-84
2022/06/03 01:39:30;;;;;;;11.13;8.98;;;14.80;60.30;;;;;;5034863;28;20178;-86
2022/06/03 01:42:15;;;;;;;8.90;8.00;;;14.70;60.40;;;;;;5034682;28;20174;-87
2022/06/03 01:44:50;;;;;;;8.85;8.00;;;14.70;60.70;;;;;;5035101;28;20231;-85
2022/06/03 01:47:15;;;;;;;9.80;7.93;;;14.70;60.30;;;;;;5038973;28;20176;-86
2022/06/03 01:49:50;;;;;;;9.93;8.97;;;14.70;60.40;;;;;;5039500;28;20236;-87
2022/06/03 01:52:38;;;;;;;16.73;8.27;;;14.60;60.50;;;;;;5042117;28;20169;-85
2022/06/03 01:55:19;;;;;;;10.30;9.20;;;14.70;60.70;;;;;;5039128;28;20209;-85
2022/06/03 01:58:19;;;;;;;10.10;8.98;;;14.60;60.60;;;;;;5038695;28;20243;-86
2022/06/03 02:01:17;;;;;;;10.20;9.07;;;14.60;61.30;;;;;;5046492;28;20295;-86
2022/06/03 02:04:01;;;;;;;9.60;8.60;;;14.50;61.50;;;;;;5052801;28;20174;-86
2022/06/03 02:06:54;;;;;;;11.68;9.02;;;14.50;62.00;;;;;;5060607;28;20169;-85
2022/06/03 02:09:50;;;;;;;10.02;8.98;;;14.50;61.80;;;;;;5058802;28;20181;-87
2022/06/03 02:12:54;;;;;;;14.85;8.93;;;14.50;61.60;;;;;;5060248;28;20169;-86
2022/06/03 02:15:38;;;;;;;10.32;8.90;;;14.40;61.30;;;;;;5050980;28;20193;-86
2022/06/03 02:18:12;;;;;;;11.15;9.93;;;14.50;61.20;;;;;;5042330;28;20182;-87
2022/06/03 02:21:02;;;;;;;10.48;9.38;;;14.40;62.10;;;;;;5059271;28;20591;-86
2022/06/03 02:23:52;;;;;;;10.60;9.27;;;14.40;61.70;;;;;;5057937;28;20181;-87
2022/06/03 02:26:48;;;;;;;11.35;9.68;;;14.40;62.00;;;;;;5051894;28;20228;-85
2022/06/03 02:32:44;;;;;;;9.93;8.48;;;14.30;62.30;;;;;;5058530;28;20185;-86
2022/06/03 02:35:55;;;;;;;10.65;9.63;;;14.20;62.70;;;;;;5055772;28;20228;-86
2022/06/03 02:38:23;;;;;;;10.27;9.27;;;14.20;62.40;;;;;;5018877;28;20189;-85
2022/06/03 02:41:01;;;;;;;12.88;9.63;;;14.20;62.40;;;;;;5054738;28;20209;-86
2022/06/03 02:43:52;;;;;;;13.00;9.20;;;14.20;62.80;;;;;;5059575;28;20158;-85
2022/06/03 02:46:27;;;;;;;11.07;10.07;;;14.20;62.90;;;;;;5063748;28;20218;-83
2022/06/03 02:49:09;;;;;;;11.93;9.90;;;14.20;63.20;;;;;;5071129;28;20181;-84
2022/06/03 02:51:41;;;;;;;13.88;12.40;;;14.20;62.80;;;;;;5063666;28;20201;-82
2022/06/03 02:54:08;;;;;;;11.10;10.00;;;14.10;63.20;;;;;;5073604;28;20203;-85
2022/06/03 02:56:47;;;;;;;14.52;11.45;;;14.20;63.00;;;;;;5064216;28;20221;-86
2022/06/03 02:59:21;;;;;;;13.50;10.05;;;14.20;62.80;;;;;;5065666;28;20188;-85
2022/06/03 03:01:59;;;;;;;11.48;10.38;;;14.10;63.00;;;;;;5076400;28;20184;-85
2022/06/03 03:05:07;;;;;;;11.48;10.38;;;14.20;63.20;;;;;;5063242;28;20173;-86
2022/06/03 03:07:54;;;;;;;11.38;10.18;;;14.20;63.60;;;;;;5045820;28;20177;-86
2022/06/03 03:10:38;;;;;;;10.90;9.73;;;14.20;63.20;;;;;;5039428;28;20255;-86
2022/06/03 03:13:25;;;;;;;12.23;10.50;;;14.20;63.30;;;;;;5058683;28;20558;-88
2022/06/03 03:16:28;;;;;;;13.50;11.57;;;14.20;63.50;;;;;;5036421;28;20213;-87
2022/06/03 03:19:07;;;;;;;16.48;11.27;;;14.30;63.20;;;;;;5042442;28;20178;-87
2022/06/03 03:22:15;;;;;;;13.05;11.75;;;14.30;64.10;;;;;;5047925;28;20205;-86
2022/06/03 03:25:03;;;;;;;15.98;11.80;;;14.30;63.20;;;;;;5045680;28;20204;-86
2022/06/03 03:27:59;;;;;;;10.45;9.45;;;14.30;63.50;;;;;;5046313;28;20180;-87
2022/06/03 03:30:36;;;;;;;13.15;11.23;;;14.30;63.50;;;;;;5055706;28;20208;-87
2022/06/03 03:33:23;;;;;;;11.63;10.38;;;14.30;64.00;;;;;;5052888;28;20192;-86
2022/06/03 03:36:14;;;;;;;12.00;10.80;;;14.30;63.80;;;;;;5049747;28;20200;-88
2022/06/03 03:38:56;;;;;;;12.98;11.77;;;14.20;63.90;;;;;;5045101;28;20204;-87
2022/06/03 03:41:40;;;;;;;11.20;10.07;;;14.20;64.10;;;;;;5053478;28;20680;-86
2022/06/03 03:44:32;;;;;;;12.95;11.07;;;14.20;63.90;;;;;;5055800;28;20184;-87
2022/06/03 03:47:31;;;;;;;11.95;10.82;;;14.20;63.90;;;;;;5034910;28;20273;-87
2022/06/03 03:50:34;;;;;;;12.07;10.77;;;14.20;63.70;;;;;;5040396;28;20258;-87
2022/06/03 03:53:21;;;;;;;12.02;10.93;;;14.10;64.20;;;;;;5008819;28;20185;-87
2022/06/03 03:56:08;;;;;;;12.25;11.13;;;14.10;64.50;;;;;;5043796;28;20205;-87
2022/06/03 03:59:18;;;;;;;15.70;12.05;;;14.10;64.20;;;;;;5054292;28;20185;-87
2022/06/03 04:01:58;;;;;;;11.93;10.68;;;14.10;64.40;;;;;;5023314;28;20210;-85
2022/06/03 04:04:53;;;;;;;12.35;11.15;;;14.10;64.50;;;;;;5052863;28;20169;-86
2022/06/03 04:07:57;;;;;;;13.75;12.05;;;14.10;64.60;;;;;;5038343;28;20182;-86
2022/06/03 04:10:50;;;;;;;12.00;10.80;;;14.10;65.20;;;;;;5037799;28;20190;-85
2022/06/03 04:13:50;;;;;;;12.68;11.43;;;14.10;65.20;;;;;;5049682;28;20657;-86
2022/06/03 04:16:22;;;;;;;14.18;12.57;;;14.00;65.80;;;;;;5044101;28;20201;-85
2022/06/03 04:19:02;;;;;;;12.88;11.55;;;14.00;65.70;;;;;;5046750;28;20237;-86
2022/06/03 04:22:05;;;;;;;14.43;10.95;;;14.10;65.20;;;;;;5053964;28;20284;-86
2022/06/03 04:24:40;;;;;;;12.00;10.80;;;14.20;65.00;;;;;;5055394;28;20234;-85
2022/06/03 04:27:50;;;;;;;15.77;11.57;;;14.10;65.20;;;;;;5039185;28;20220;-84
2022/06/03 04:30:15;;;;;;;12.98;11.68;;;14.10;65.50;;;;;;5067530;28;20205;-86
2022/06/03 04:33:31;;;;;;;15.23;12.10;;;14.20;65.20;;;;;;5071194;28;20177;-85
2022/06/03 04:36:22;;;;;;;14.73;12.27;;;14.20;64.70;;;;;;5056311;28;20205;-84
2022/06/03 04:39:09;;;;;;;15.82;12.40;;;14.20;64.80;;;;;;5071337;28;20185;-85
2022/06/03 04:41:53;;;;;;;13.90;11.55;;;14.20;64.80;;;;;;5055988;28;20297;-84
2022/06/03 04:44:52;;;;;;;12.25;10.82;;;14.30;64.90;;;;;;5071953;28;20191;-84
2022/06/03 04:47:27;;;;;;;12.73;11.43;;;14.30;64.80;;;;;;5074198;28;20225;-86
2022/06/03 04:50:08;;;;;;;17.30;11.80;;;14.30;65.00;;;;;;5064291;28;20280;-84
2022/06/03 04:52:43;;;;;;;12.20;10.90;;;14.30;64.60;;;;;;5055329;28;20161;-84
2022/06/03 04:55:34;;;;;;;16.33;11.48;;;14.40;64.40;;;;;;5053809;28;20210;-87
2022/06/03 04:58:24;;;;;;;12.38;11.10;;;14.40;64.30;;;;;;5034819;28;20166;-85
2022/06/03 05:01:08;;;;;;;13.00;11.65;;;14.50;64.20;;;;;;5050970;28;20205;-84
2022/06/03 05:04:11;;;;;;;13.68;11.35;;;14.60;64.00;;;;;;5044636;28;20192;-87
2022/06/03 05:07:00;;;;;;;11.98;10.32;;;14.60;64.10;;;;;;5042430;28;20199;-86
2022/06/03 05:09:50;;;;;;;12.07;10.88;;;14.70;63.30;;;;;;5036159;28;20185;-85
2022/06/03 05:12:21;;;;;;;12.07;10.77;;;14.80;63.20;;;;;;5038327;28;20174;-85
2022/06/03 05:15:24;;;;;;;12.35;10.30;;;15.00;62.90;;;;;;5054578;28;20196;-82
2022/06/03 05:18:03;;;;;;;10.30;9.35;;;15.40;62.00;;;;;;5052056;28;20173;-83
2022/06/03 05:20:38;;;;;;;9.77;8.95;;;16.40;59.70;;;;;;5054091;28;20673;-84
2022/06/03 05:23:23;;;;;;;9.05;8.15;;;17.30;56.40;;;;;;5053033;28;20180;-84
2022/06/03 05:26:13;;;;;;;9.55;8.45;;;18.40;53.00;;;;;;5046143;28;20174;-86
2022/06/03 05:28:52;;;;;;;8.50;7.80;;;19.50;49.90;;;;;;5055942;28;20181;-83
2022/06/03 05:31:36;;;;;;;9.60;6.67;;;20.40;46.20;;;;;;5044039;28;20494;-84
2022/06/03 05:34:13;;;;;;;8.33;7.50;;;20.80;44.90;;;;;;5048723;28;20528;-85
2022/06/03 05:36:50;;;;;;;7.77;7.17;;;21.40;42.60;;;;;;5053872;28;20497;-90
2022/06/03 05:39:40;;;;;;;8.43;7.40;;;21.70;41.90;;;;;;5061414;28;20464;-92
2022/06/03 05:45:39;;;;;;;14.60;8.30;;;21.70;42.00;;;;;;5061501;28;20405;-90
2022/06/03 05:48:08;;;;;;;9.17;8.27;;;21.90;41.00;;;;;;5060298;28;20412;-90
2022/06/03 05:50:51;;;;;;;8.93;8.00;;;21.80;40.90;;;;;;5059824;28;20826;-90
2022/06/03 05:53:39;;;;;;;7.90;6.50;;;21.60;41.40;;;;;;5047171;28;20417;-90
2022/06/03 05:56:27;;;;;;;8.40;7.60;;;21.80;41.70;;;;;;5059124;28;20444;-89
2022/06/03 05:58:52;;;;;;;8.60;7.80;;;21.80;41.40;;;;;;5055831;28;20451;-90
2022/06/03 06:02:13;;;;;;;7.67;7.00;;;21.70;41.30;;;;;;5059353;28;20471;-89
2022/06/03 06:04:42;;;;;;;15.30;7.87;;;21.50;42.00;;;;;;5059615;28;20573;-91
2022/06/03 06:07:23;;;;;;;9.77;7.13;;;21.40;42.10;;;;;;5060019;28;20422;-91
2022/06/03 06:10:10;;;;;;;8.77;7.80;;;21.50;42.50;;;;;;5060846;28;20395;-91
2022/06/03 06:13:01;;;;;;;7.50;6.90;;;21.60;41.90;;;;;;5058546;28;20458;-90
2022/06/03 06:15:53;;;;;;;8.00;7.17;;;21.70;42.00;;;;;;5061038;28;20604;-90
2022/06/03 06:18:49;;;;;;;8.87;7.97;;;21.50;42.30;;;;;;5058504;28;20408;-90
2022/06/03 06:21:49;;;;;;;7.90;7.10;;;21.50;42.20;;;;;;5058404;28;20823;-91
2022/06/03 06:24:29;;;;;;;8.73;7.83;;;21.60;41.90;;;;;;5060089;28;20404;-91
2022/06/03 06:27:16;;;;;;;8.17;7.20;;;21.60;42.40;;;;;;5058428;28;20419;-90
2022/06/03 06:30:10;;;;;;;7.90;7.20;;;21.80;42.00;;;;;;5060063;28;20469;-90
2022/06/03 06:33:14;;;;;;;6.97;6.37;;;22.10;40.90;;;;;;5059011;28;20568;-91
2022/06/03 06:36:01;;;;;;;8.23;7.43;;;22.20;40.50;;;;;;5058008;28;20824;-91
2022/06/03 06:38:45;;;;;;;8.43;7.27;;;22.20;40.30;;;;;;5057037;28;20753;-89
2022/06/03 06:41:11;;;;;;;8.00;7.20;;;22.10;40.50;;;;;;5057101;28;20435;-90
2022/06/03 06:44:15;;;;;;;8.20;7.40;;;21.60;41.50;;;;;;5059121;28;21014;-89
2022/06/03 06:46:55;;;;;;;7.90;7.20;;;21.40;42.60;;;;;;5035060;28;20177;-90
2022/06/03 06:49:30;;;;;;;9.30;8.27;;;21.50;43.20;;;;;;5063369;28;20453;-91
2022/06/03 06:52:21;;;;;;;7.23;6.60;;;21.70;42.80;;;;;;5063237;28;20423;-91
2022/06/03 06:55:12;;;;;;;8.57;7.53;;;22.00;42.90;;;;;;5064599;28;20416;-91
2022/06/03 06:57:49;;;;;;;8.03;6.50;;;22.40;41.60;;;;;;5065174;28;20466;-90
2022/06/03 07:00:30;;;;;;;7.63;6.83;;;22.40;41.40;;;;;;5057567;28;20447;-91
2022/06/03 07:03:14;;;;;;;9.47;7.30;;;22.20;42.30;;;;;;5057491;28;20952;-90
2022/06/03 07:06:05;;;;;;;13.23;6.50;;;22.50;41.30;;;;;;5058179;28;20948;-90
2022/06/03 07:09:11;;;;;;;6.70;6.03;;;22.40;41.30;;;;;;5058197;28;20436;-91
2022/06/03 07:11:45;;;;;;;6.53;5.83;;;22.40;41.30;;;;;;5008852;28;20928;-91
2022/06/03 07:14:18;;;;;;;8.90;8.10;;;22.50;41.10;;;;;;5058695;28;20938;-91
2022/06/03 07:20:27;;;;;;;7.97;7.20;;;22.30;41.60;;;;;;5060042;28;20468;-91
2022/06/03 07:22:58;;;;;;;7.63;6.77;;;22.00;41.90;;;;;;5058597;28;20392;-90
2022/06/03 07:25:42;;;;;;;7.10;6.50;;;21.70;42.80;;;;;;5057840;28;20469;-90
2022/06/03 07:28:28;;;;;;;8.10;6.90;;;21.50;43.50;;;;;;5059700;28;20403;-92
2022/06/03 07:31:22;;;;;;;7.17;6.43;;;21.20;43.90;;;;;;5064254;28;20494;-91
2022/06/03 07:34:09;;;;;;;7.77;6.37;;;20.80;45.10;;;;;;5067659;28;20432;-91
2022/06/03 07:37:00;;;;;;;7.30;6.70;;;20.70;46.60;;;;;;5065884;28;20463;-90
2022/06/03 07:39:48;;;;;;;7.22;6.35;;;20.50;47.20;;;;;;5031408;28;20267;-90
2022/06/03 07:42:24;;;;;;;8.63;7.10;;;20.30;48.20;;;;;;5066634;28;20162;-92
2022/06/03 07:45:19;;;;;;;7.10;6.40;;;20.20;48.20;;;;;;5057398;28;20214;-91
2022/06/03 07:47:45;;;;;;;9.73;7.50;;;20.10;48.80;;;;;;5056761;28;20169;-92
2022/06/03 07:50:21;;;;;;;7.50;6.35;;;20.20;48.60;;;;;;5055709;28;20204;-92
2022/06/03 07:53:12;;;;;;;7.82;7.03;;;20.10;49.10;;;;;;5057270;28;20247;-92
2022/06/03 07:55:39;;;;;;;8.02;6.13;;;20.10;49.10;;;;;;5055397;28;20201;-92
2022/06/03 07:58:07;;;;;;;7.90;7.20;;;20.10;49.00;;;;;;5056295;28;20173;-92
2022/06/03 08:00:36;;;;;;;7.03;6.32;;;20.00;48.70;;;;;;5057141;28;20213;-91
2022/06/03 08:10:58;;;;;;;6.35;5.70;;;20.30;48.70;;;;;;5003527;28;20226;-90
2022/06/03 08:13:39;;;;;;;12.88;6.32;;;20.40;48.00;;;;;;5000498;28;20199;-91
2022/06/03 08:16:10;;;;;;;6.75;6.05;;;20.50;47.70;;;;;;5016403;28;20202;-90
2022/06/03 08:18:43;;;;;;;10.90;6.20;;;20.50;47.30;;;;;;4999453;28;20171;-91
2022/06/03 08:21:21;;;;;;;6.07;5.47;;;20.50;47.10;;;;;;5001677;28;20933;-91
2022/06/03 08:23:47;;;;;;;7.03;5.13;;;20.70;47.40;;;;;;5000590;28;20936;-89
2022/06/03 08:26:23;;;;;;;7.23;5.07;;;20.80;46.70;;;;;;5001849;28;20419;-90
2022/06/03 08:28:53;;;;;;;5.83;5.27;;;20.80;46.80;;;;;;5001243;28;20452;-91
2022/06/03 08:31:22;;;;;;;5.00;4.60;;;20.90;46.40;;;;;;5001078;28;20414;-91
2022/06/03 08:33:58;;;;;;;7.83;5.23;;;21.00;46.20;;;;;;5003089;28;20489;-91
2022/06/03 08:36:29;;;;;;;6.20;4.80;;;21.10;45.70;;;;;;5000627;28;20456;-90
2022/06/03 08:39:01;;;;;;;9.07;4.80;;;21.20;45.40;;;;;;4994178;28;20498;-90
2022/06/03 08:41:27;;;;;;;5.50;4.93;;;21.30;45.20;;;;;;5005725;28;20419;-91
2022/06/03 08:44:11;;;;;;;6.60;5.40;;;21.40;45.10;;;;;;5001344;28;20878;-91
2022/06/03 08:46:51;;;;;;;5.70;5.03;;;21.40;44.80;;;;;;5002428;28;20185;-90
2022/06/03 08:49:26;;;;;;;5.50;5.00;;;21.30;45.30;;;;;;5003669;28;20995;-91
2022/06/03 08:52:06;;;;;;;5.70;4.47;;;21.40;44.50;;;;;;5013175;28;20394;-90
2022/06/03 08:54:43;;;;;;;4.30;3.90;;;21.50;43.90;;;;;;5011989;28;20437;-91
2022/06/03 08:57:20;;;;;;;6.10;3.50;;;21.60;44.40;;;;;;5003994;28;20414;-90
2022/06/03 09:00:17;;;;;;;4.70;4.33;;;21.60;43.70;;;;;;5001923;28;21024;-90
2022/06/03 09:02:59;;;;;;;5.07;3.90;;;21.80;44.10;;;;;;5003570;28;20411;-92
2022/06/03 09:05:46;;;;;;;4.50;4.10;;;21.70;43.70;;;;;;5003648;28;20437;-91
2022/06/03 09:08:36;;;;;;;7.17;5.37;;;21.70;44.10;;;;;;5004726;28;20391;-90
2022/06/03 09:11:44;;;;;;;8.07;4.30;;;21.70;44.10;;;;;;5004552;28;20415;-90
2022/06/03 09:14:18;;;;;;;4.50;3.80;;;21.60;43.60;;;;;;5001793;28;20442;-90
2022/06/03 09:16:48;;;;;;;4.30;3.97;;;21.60;43.50;;;;;;5007237;28;20539;-89
2022/06/03 09:19:23;;;;;;;6.73;3.70;;;21.70;44.20;;;;;;5001826;28;20472;-90
2022/06/03 09:21:51;;;;;;;4.10;3.37;;;21.70;44.20;;;;;;5001098;28;20930;-90
2022/06/03 09:24:32;;;;;;;4.30;3.90;;;21.70;43.70;;;;;;5001227;28;20435;-90
2022/06/03 09:27:00;;;;;;;7.07;4.20;;;21.70;42.50;;;;;;5001663;28;20714;-90
2022/06/03 09:29:26;;;;;;;4.03;3.60;;;21.70;42.20;;;;;;5000180;28;20434;-90
2022/06/03 09:32:05;;;;;;;7.33;3.37;;;21.80;41.80;;;;;;5001162;28;20517;-90
2022/06/03 09:34:40;;;;;;;5.83;3.37;;;21.80;42.50;;;;;;5001766;28;20461;-90
2022/06/03 09:37:09;;;;;;;6.47;3.47;;;21.90;42.80;;;;;;5002892;28;20410;-90
2022/06/03 09:39:35;;;;;;;4.90;2.87;;;22.10;42.30;;;;;;5001425;28;20422;-90
2022/06/03 09:42:03;;;;;;;5.73;3.37;;;22.10;40.90;;;;;;5001539;28;20423;-90
2022/06/03 09:44:30;;;;;;;6.80;3.00;;;22.20;41.00;;;;;;5001447;28;20435;-89
2022/06/03 09:47:03;;;;;;;7.27;2.90;;;22.30;41.10;;;;;;4985180;28;20434;-90
2022/06/03 09:49:32;;;;;;;4.73;3.10;;;22.40;40.40;;;;;;5000593;28;20410;-91
2022/06/03 09:52:00;;;;;;;8.10;3.00;;;22.50;40.10;;;;;;5010336;28;20434;-91
2022/06/03 09:54:29;;;;;;;3.43;3.10;;;22.60;39.90;;;;;;5015631;28;20434;-91
2022/06/03 09:57:04;;;;;;;4.37;2.60;;;22.60;40.50;;;;;;5016102;28;20512;-90
2022/06/03 09:59:34;;;;;;;3.73;2.97;;;22.70;39.90;;;;;;5008721;28;20461;-90
2022/06/03 10:01:59;;;;;;;3.80;3.13;;;22.70;39.90;;;;;;5013270;28;20446;-91
2022/06/03 10:04:25;;;;;;;2.90;2.40;;;22.80;38.20;;;;;;5016317;28;20435;-91
2022/06/03 10:06:53;;;;;;;2.80;2.60;;;22.90;37.00;;;;;;5014540;28;20294;-91
2022/06/03 10:17:49;;;;;;;3.50;3.20;;;23.10;36.90;;;;;;5011400;28;20429;-90
2022/06/03 10:20:16;;;;;;;3.07;2.80;;;23.10;36.70;;;;;;5014315;28;20418;-91
2022/06/03 10:22:44;;;;;;;3.30;2.63;;;23.20;36.20;;;;;;5014876;28;20421;-90
2022/06/03 10:25:10;;;;;;;2.77;2.40;;;23.20;36.20;;;;;;5006250;28;20512;-91
2022/06/03 10:27:36;;;;;;;4.33;2.53;;;23.30;36.20;;;;;;5007082;28;20422;-91
2022/06/03 10:30:05;;;;;;;2.50;2.00;;;23.30;35.40;;;;;;5014605;28;20440;-91
2022/06/03 10:32:31;;;;;;;3.27;2.10;;;23.40;34.90;;;;;;5012724;28;20183;-91
2022/06/03 10:35:13;;;;;;;4.00;2.23;;;23.60;34.20;;;;;;5006916;28;20446;-92
2022/06/03 10:37:50;;;;;;;2.90;2.20;;;23.50;33.90;;;;;;4998939;28;20413;-92
2022/06/03 10:40:17;;;;;;;3.70;1.97;;;23.60;32.20;;;;;;5006858;28;20422;-91
2022/06/03 10:42:48;;;;;;;2.00;1.90;;;23.70;31.90;;;;;;5009014;28;20445;-91
2022/06/03 10:45:15;;;;;;;2.67;1.73;;;23.80;31.40;;;;;;5009823;28;20965;-91
2022/06/03 10:47:46;;;;;;;3.17;2.50;;;23.70;30.10;;;;;;4998707;28;20922;-91
2022/06/03 10:50:35;;;;;;;3.10;1.80;;;23.70;30.00;;;;;;5005441;28;20430;-92
2022/06/03 11:01:55;;;;;;;3.33;1.73;;;24.10;30.20;;;;;;5002211;28;20413;-92
2022/06/03 11:04:31;;;;;;;2.00;1.60;;;24.20;30.30;;;;;;4998827;28;20441;-92
2022/06/03 11:07:01;;;;;;;1.70;1.60;;;24.40;30.30;;;;;;4998025;28;20422;-92
2022/06/03 11:09:27;;;;;;;1.90;1.80;;;24.50;30.60;;;;;;4997316;28;20446;-92
2022/06/03 11:12:00;;;;;;;2.33;1.80;;;24.50;30.00;;;;;;4998270;28;20828;-91
2022/06/03 11:14:51;;;;;;;4.47;1.83;;;24.50;30.00;;;;;;4998017;28;20536;-92
2022/06/03 11:17:33;;;;;;;3.57;1.90;;;24.50;30.00;;;;;;4994192;28;20412;-91
2022/06/03 11:19:59;;;;;;;2.53;2.30;;;24.50;30.00;;;;;;4977221;28;20470;-91
2022/06/03 11:22:27;;;;;;;2.37;2.10;;;24.50;30.00;;;;;;4976983;28;20883;-91
2022/06/03 11:25:07;;;;;;;1.80;1.70;;;24.40;30.00;;;;;;4975696;28;20445;-90
2022/06/03 11:27:49;;;;;;;3.10;1.77;;;24.50;30.00;;;;;;4978236;28;20411;-91
2022/06/03 11:30:44;;;;;;;3.30;1.90;;;24.50;30.00;;;;;;4978943;28;20761;-91
2022/06/03 11:33:17;;;;;;;2.47;2.13;;;24.50;30.00;;;;;;4995547;28;20469;-92
2022/06/03 11:35:48;;;;;;;3.10;2.10;;;24.50;30.00;;;;;;4997076;28;20455;-91
2022/06/03 11:38:28;;;;;;;9.30;2.70;;;24.50;30.00;;;;;;4985121;28;20411;-90
2022/06/03 11:41:00;;;;;;;1.83;1.60;;;24.50;30.00;;;;;;5006392;28;20429;-90
2022/06/03 11:43:39;;;;;;;3.43;1.97;;;24.50;30.00;;;;;;4988722;28;20438;-91
2022/06/03 11:46:10;;;;;;;3.83;1.83;;;24.50;30.00;;;;;;5003926;28;20444;-91
2022/06/03 11:48:40;;;;;;;2.93;1.90;;;24.60;30.00;;;;;;5001301;28;20426;-91
2022/06/03 11:51:08;;;;;;;1.80;1.70;;;24.70;30.00;;;;;;4998225;28;20641;-91
2022/06/03 11:53:39;;;;;;;3.13;2.13;;;24.80;30.00;;;;;;4995466;28;20436;-91
2022/06/03 11:56:27;;;;;;;2.73;1.57;;;24.80;30.00;;;;;;4993091;28;20455;-91
2022/06/03 11:59:11;;;;;;;3.63;1.77;;;24.80;30.00;;;;;;4992953;28;20399;-91
2022/06/03 12:01:49;;;;;;;2.17;2.00;;;24.80;30.00;;;;;;4992928;28;20402;-91
2022/06/03 12:04:52;;;;;;;2.80;1.80;;;24.90;30.00;;;;;;4992714;28;20446;-91
2022/06/03 12:07:33;;;;;;;3.47;1.60;;;25.00;30.00;;;;;;4993186;28;20428;-91
2022/06/03 12:10:07;;;;;;;3.30;1.60;;;25.10;30.00;;;;;;4995514;28;20446;-91
2022/06/03 12:15:31;;;;;;;2.20;1.70;;;25.30;30.00;;;;;;4977848;28;20472;-91
2022/06/03 12:18:11;;;;;;;1.70;1.60;;;25.30;30.00;;;;;;4994216;28;20416;-91
2022/06/03 12:20:50;;;;;;;2.17;1.50;;;25.40;30.00;;;;;;4995438;28;20165;-90
2022/06/03 12:23:16;;;;;;;1.93;1.57;;;25.40;30.00;;;;;;5006467;28;20404;-91
2022/06/03 12:25:51;;;;;;;2.80;1.70;;;25.50;30.00;;;;;;5011566;28;20498;-91
2022/06/03 12:28:31;;;;;;;1.70;1.60;;;25.60;30.00;;;;;;5013526;28;20207;-91
2022/06/03 12:31:19;;;;;;;1.60;1.50;;;25.70;30.00;;;;;;5012199;28;20404;-91
2022/06/03 12:33:51;;;;;;;1.80;1.70;;;25.80;30.00;;;;;;4998857;28;20441;-91
2022/06/03 12:36:36;;;;;;;2.63;1.73;;;25.90;30.00;;;;;;4997682;28;20469;-91
2022/06/03 12:39:08;;;;;;;3.70;2.10;;;26.00;30.00;;;;;;4992734;28;20428;-91
2022/06/03 12:41:54;;;;;;;1.63;1.53;;;26.10;30.00;;;;;;4992232;28;20413;-91
2022/06/03 12:44:46;;;;;;;3.77;1.80;;;26.20;30.00;;;;;;4975662;28;20525;-91
2022/06/03 12:47:18;;;;;;;2.63;2.20;;;26.20;30.00;;;;;;4992515;28;20414;-91
2022/06/03 12:49:43;;;;;;;4.33;1.90;;;26.10;30.00;;;;;;4993419;28;20411;-91
2022/06/03 12:52:20;;;;;;;5.80;2.17;;;26.10;30.00;;;;;;4992924;28;20962;-91
2022/06/03 12:55:01;;;;;;;3.00;1.80;;;26.10;30.00;;;;;;4992411;28;20232;-92
2022/06/03 12:57:42;;;;;;;2.30;1.80;;;25.90;30.00;;;;;;4991756;28;20432;-92
2022/06/03 13:00:34;;;;;;;2.80;1.97;;;25.90;30.00;;;;;;4992687;28;20780;-92
2022/06/03 13:03:29;;;;;;;3.57;2.10;;;26.00;30.00;;;;;;4977030;28;20424;-92
2022/06/03 13:05:59;;;;;;;2.83;1.80;;;25.90;30.00;;;;;;4981488;28;20417;-91
2022/06/03 13:08:27;;;;;;;2.23;2.03;;;26.00;30.00;;;;;;4997983;28;20454;-91
2022/06/03 13:11:06;;;;;;;3.87;2.60;;;26.00;30.00;;;;;;5001768;28;20435;-91
2022/06/03 13:13:33;;;;;;;4.00;1.97;;;26.20;30.00;;;;;;4992707;28;20494;-91
2022/06/03 13:16:17;;;;;;;5.20;2.70;;;26.30;30.00;;;;;;5010493;28;20470;-92
2022/06/03 13:18:46;;;;;;;4.53;2.60;;;26.40;30.00;;;;;;5010762;28;20189;-92
2022/06/03 13:21:13;;;;;;;5.27;2.37;;;26.40;30.00;;;;;;5005922;28;20472;-93
2022/06/03 13:23:42;;;;;;;9.90;3.50;;;26.30;30.00;;;;;;4994288;28;20465;-91
2022/06/03 13:26:27;;;;;;;2.30;2.10;;;26.10;30.00;;;;;;4993010;28;20429;-91
2022/06/03 13:29:38;;;;;;;4.47;2.27;;;26.10;30.00;;;;;;4996864;28;20423;-92
2022/06/03 13:32:35;;;;;;;2.40;2.20;;;26.20;30.00;;;;;;4963663;28;20422;-93
2022/06/03 13:35:06;;;;;;;2.50;2.30;;;26.30;30.00;;;;;;4992415;28;20446;-93
2022/06/03 13:37:45;;;;;;;4.80;2.37;;;26.30;30.00;;;;;;4982354;28;20450;-94
2022/06/03 13:40:31;;;;;;;3.87;3.07;;;26.40;30.00;;;;;;5013469;28;20510;-93
2022/06/03 13:42:59;;;;;;;3.33;3.03;;;26.50;30.00;;;;;;5012850;28;20415;-93
2022/06/03 13:45:56;;;;;;;3.63;3.33;;;26.60;30.00;;;;;;4994117;28;20447;-93
2022/06/03 13:48:22;;;;;;;4.07;3.50;;;26.60;30.00;;;;;;4997205;28;20422;-92
2022/06/03 13:50:48;;;;;;;4.57;3.73;;;26.40;30.00;;;;;;4997068;28;20438;-92
2022/06/03 13:53:26;;;;;;;4.43;2.57;;;26.40;30.00;;;;;;4997204;28;20182;-93
2022/06/03 13:56:05;;;;;;;3.30;2.60;;;26.40;30.00;;;;;;5001744;28;20484;-93
2022/06/03 13:58:36;;;;;;;3.33;2.20;;;26.40;30.00;;;;;;5013243;28;20479;-92
2022/06/03 14:01:08;;;;;;;3.60;2.50;;;26.40;30.00;;;;;;5006786;28;20545;-91
2022/06/03 14:03:52;;;;;;;4.77;2.10;;;26.50;30.00;;;;;;4981325;28;20446;-92
2022/06/03 14:06:41;;;;;;;6.73;2.67;;;26.70;30.00;;;;;;4981211;28;20406;-92
2022/06/03 14:09:21;;;;;;;4.73;2.60;;;26.70;30.00;;;;;;4982989;28;20577;-92
2022/06/03 14:11:55;;;;;;;5.67;3.37;;;26.70;30.00;;;;;;5005460;28;20489;-92
2022/06/03 14:14:56;;;;;;;4.70;4.10;;;26.60;30.00;;;;;;5012503;28;20434;-92
2022/06/03 14:17:57;;;;;;;4.63;4.23;;;26.40;30.00;;;;;;5003299;28;20429;-92
2022/06/03 14:20:52;;;;;;;5.00;4.60;;;26.20;30.00;;;;;;4951161;28;20439;-92
2022/06/03 14:23:32;;;;;;;4.80;3.80;;;26.10;30.00;;;;;;4957510;28;20418;-92
2022/06/03 14:26:20;;;;;;;4.20;3.77;;;26.10;30.00;;;;;;5006667;28;20473;-92
2022/06/03 14:28:58;;;;;;;4.60;3.63;;;26.00;30.00;;;;;;4995839;28;20435;-93
2022/06/03 14:31:33;;;;;;;3.70;3.40;;;25.80;30.00;;;;;;5003374;28;20500;-92
2022/06/03 14:34:10;;;;;;;3.27;3.00;;;25.90;30.00;;;;;;5004160;28;20583;-92